Time;durP1;ratioP1;P1;durP2;ratioP2;P2;SDS_P1;SDS_P2;PMS_P1;PMS_P2;Temp;Humidity;BMP_temperature;BMP_pressure;BME280_temperature;BME280_humidity;BME280_pressure;Samples;Min_cycle;Max_cycle;Signal;HPM_P1;HPM_P2
2023/04/13 00:00:46;;;;;;;3.80;1.33;;;;;;;8.59;100.00;99353.53;5052046;28;20208;-74
2023/04/13 00:03:15;;;;;;;4.07;1.13;;;;;;;8.62;100.00;99344.44;5060141;28;20119;-75
2023/04/13 00:05:44;;;;;;;5.00;1.05;;;;;;;8.61;100.00;99340.09;5060706;28;20041;-75
2023/04/13 00:08:11;;;;;;;1.35;0.60;;;;;;;8.62;100.00;99327.88;5063889;28;20110;-75
2023/04/13 00:10:40;;;;;;;0.98;0.60;;;;;;;8.63;100.00;99331.41;5059957;28;20062;-74
2023/04/13 00:13:09;;;;;;;2.45;0.80;;;;;;;8.66;100.00;99331.38;5060261;28;20052;-75
2023/04/13 00:15:40;;;;;;;3.35;1.20;;;;;;;8.73;100.00;99317.47;5051984;28;20143;-76
2023/04/13 00:18:07;;;;;;;1.38;0.70;;;;;;;8.72;100.00;99321.44;5059857;28;20045;-74
2023/04/13 00:20:34;;;;;;;3.03;0.77;;;;;;;8.73;100.00;99325.75;5064666;28;20147;-75
2023/04/13 00:23:01;;;;;;;1.52;0.57;;;;;;;8.78;100.00;99330.75;5062457;28;20041;-75
2023/04/13 00:25:29;;;;;;;1.40;0.80;;;;;;;8.88;100.00;99323.53;5059285;28;20045;-75
2023/04/13 00:27:56;;;;;;;1.17;0.80;;;;;;;8.86;100.00;99326.72;5059161;28;20052;-77
2023/04/13 00:30:22;;;;;;;1.52;0.73;;;;;;;8.89;100.00;99333.38;5074566;28;20048;-75
2023/04/13 00:32:49;;;;;;;0.40;0.40;;;;;;;8.98;100.00;99317.06;5063208;28;20045;-76
2023/04/13 00:35:18;;;;;;;0.57;0.57;;;;;;;9.02;100.00;99321.34;5057883;28;20044;-74
2023/04/13 00:37:48;;;;;;;2.10;1.20;;;;;;;9.08;100.00;99325.16;5059844;28;20066;-76
2023/04/13 00:40:15;;;;;;;2.45;0.93;;;;;;;9.07;100.00;99303.50;5057936;28;20044;-77
2023/04/13 00:42:46;;;;;;;3.67;1.02;;;;;;;9.08;100.00;99311.34;5062184;28;20041;-75
2023/04/13 00:45:14;;;;;;;2.30;0.82;;;;;;;9.08;100.00;99311.34;5065560;28;20051;-75
2023/04/13 00:47:45;;;;;;;2.92;0.90;;;;;;;9.16;100.00;99309.25;5064079;28;20052;-76
2023/04/13 00:50:13;;;;;;;1.95;0.60;;;;;;;9.12;100.00;99301.06;5065370;28;20406;-73
2023/04/13 00:52:41;;;;;;;4.50;1.13;;;;;;;9.25;100.00;99298.47;5059701;28;20055;-74
2023/04/13 00:55:08;;;;;;;4.05;1.38;;;;;;;9.10;100.00;99308.19;5057986;28;20143;-75
2023/04/13 00:57:35;;;;;;;3.70;0.98;;;;;;;9.18;100.00;99310.38;5061818;28;20048;-75
2023/04/13 01:00:08;;;;;;;3.60;1.88;;;;;;;8.94;100.00;99319.88;5061745;28;20398;-74
2023/04/13 01:02:35;;;;;;;4.53;1.50;;;;;;;8.90;100.00;99312.84;5048950;28;20053;-75
2023/04/13 01:05:05;;;;;;;2.47;1.27;;;;;;;8.65;100.00;99348.31;5061953;28;20055;-75
2023/04/13 01:07:58;;;;;;;4.72;1.50;;;;;;;8.47;100.00;99348.56;5056049;28;20064;-75
2023/04/13 01:10:53;;;;;;;3.58;0.82;;;;;;;8.28;100.00;99318.16;5062947;28;20067;-74
2023/04/13 01:13:21;;;;;;;0.82;0.82;;;;;;;8.16;100.00;99322.22;5056512;28;20044;-75
2023/04/13 01:15:56;;;;;;;2.05;0.93;;;;;;;8.05;100.00;99332.59;5060051;28;20051;-74
2023/04/13 01:18:24;;;;;;;;;;;;;;;8.04;100.00;99320.78;5065175;28;20045;-73
2023/04/13 01:20:53;;;;;;;0.68;0.40;;;;;;;7.99;100.00;99309.47;5061871;28;19930;-74
2023/04/13 01:24:00;;;;;;;2.17;0.95;;;;;;;7.87;100.00;99327.31;5065985;28;20487;-74
2023/04/13 01:27:06;;;;;;;2.42;0.98;;;;;;;7.89;100.00;99307.63;5060765;28;20040;-74
2023/04/13 01:29:35;;;;;;;1.33;0.80;;;;;;;7.90;100.00;99314.72;5058381;28;20041;-74
2023/04/13 01:32:02;;;;;;;6.68;1.80;;;;;;;7.84;100.00;99313.59;5062477;28;20565;-74
2023/04/13 01:34:28;;;;;;;4.30;1.23;;;;;;;7.82;100.00;99305.75;5067458;28;20076;-74
2023/04/13 01:36:55;;;;;;;4.38;1.33;;;;;;;7.81;100.00;99306.97;5063567;28;20050;-75
2023/04/13 01:39:24;;;;;;;2.63;0.85;;;;;;;7.81;100.00;99290.44;5063681;28;20506;-74
2023/04/13 01:41:50;;;;;;;2.25;0.90;;;;;;;7.79;100.00;99268.03;5057374;28;20044;-74
2023/04/13 01:44:17;;;;;;;4.38;1.05;;;;;;;7.86;100.00;99280.91;5065386;28;20052;-72
2023/04/13 01:46:50;;;;;;;1.73;0.85;;;;;;;7.82;100.00;99280.97;5065040;28;20055;-74
2023/04/13 01:49:20;;;;;;;2.47;1.23;;;;;;;7.85;100.00;99280.16;5059406;28;20056;-75
2023/04/13 01:51:49;;;;;;;8.20;1.80;;;;;;;7.97;100.00;99279.56;5061938;28;20446;-74
2023/04/13 01:54:21;;;;;;;1.55;0.80;;;;;;;7.92;100.00;99285.56;5064008;28;20040;-72
2023/04/13 01:56:49;;;;;;;1.98;0.80;;;;;;;7.96;100.00;99277.25;5066516;28;20131;-74
2023/04/13 01:59:16;;;;;;;4.38;1.38;;;;;;;8.05;100.00;99272.00;5067206;28;20075;-75
2023/04/13 02:01:43;;;;;;;2.80;1.38;;;;;;;7.96;100.00;99269.75;5064450;28;20055;-75
2023/04/13 02:04:09;;;;;;;1.23;0.88;;;;;;;8.07;100.00;99272.38;5061550;28;20055;-74
2023/04/13 02:06:36;;;;;;;1.17;0.43;;;;;;;8.13;100.00;99278.22;5069910;28;20110;-74
2023/04/13 02:09:05;;;;;;;4.40;1.17;;;;;;;8.17;100.00;99263.19;5069327;28;20743;-76
2023/04/13 02:11:36;;;;;;;1.05;0.77;;;;;;;8.19;100.00;99262.75;5061915;28;20044;-71
2023/04/13 02:14:03;;;;;;;1.02;0.75;;;;;;;8.25;100.00;99269.38;5067565;28;20056;-72
2023/04/13 02:16:30;;;;;;;12.38;2.35;;;;;;;8.30;100.00;99269.69;5069413;28;20430;-74
2023/04/13 02:19:00;;;;;;;0.93;0.63;;;;;;;8.27;100.00;99267.75;5063545;28;20044;-74
2023/04/13 02:21:27;;;;;;;3.20;1.20;;;;;;;8.23;100.00;99267.03;5067202;28;20062;-75
2023/04/13 02:23:53;;;;;;;4.47;1.27;;;;;;;8.29;100.00;99256.34;5066911;28;20099;-76
2023/04/13 02:26:20;;;;;;;4.70;1.00;;;;;;;8.25;100.00;99252.84;5066937;28;20040;-73
2023/04/13 02:28:48;;;;;;;3.33;0.95;;;;;;;8.19;100.00;99260.78;5066310;28;20056;-74
2023/04/13 02:31:15;;;;;;;2.58;1.38;;;;;;;8.18;100.00;99256.47;5069622;28;20712;-72
2023/04/13 02:33:43;;;;;;;1.75;0.82;;;;;;;8.18;100.00;99264.75;5067837;28;20135;-74
2023/04/13 02:36:10;;;;;;;2.90;0.88;;;;;;;8.12;100.00;99266.41;5069325;28;20083;-73
2023/04/13 02:38:37;;;;;;;2.00;1.25;;;;;;;8.13;100.00;99272.69;5068467;28;20079;-74
2023/04/13 02:41:05;;;;;;;1.10;0.90;;;;;;;8.10;100.00;99268.00;5067195;28;20090;-76
2023/04/13 02:43:32;;;;;;;4.30;1.52;;;;;;;8.03;100.00;99271.63;5061253;28;20055;-72
2023/04/13 02:45:58;;;;;;;5.07;1.77;;;;;;;8.03;100.00;99261.41;5068901;28;20070;-74
2023/04/13 02:48:25;;;;;;;0.65;0.65;;;;;;;8.17;100.00;99263.19;5068220;28;20048;-74
2023/04/13 02:50:55;;;;;;;1.50;0.52;;;;;;;8.16;100.00;99275.38;5064936;28;20063;-74
2023/04/13 02:53:23;;;;;;;2.00;1.20;;;;;;;8.05;100.00;99272.00;5063351;28;20430;-73
2023/04/13 02:55:49;;;;;;;7.38;1.10;;;;;;;8.06;100.00;99276.31;5064856;28;20068;-73
2023/04/13 02:58:16;;;;;;;3.28;1.05;;;;;;;8.07;100.00;99270.38;5064261;28;20052;-75
2023/04/13 03:00:43;;;;;;;3.90;1.05;;;;;;;8.06;100.00;99283.81;5061300;28;20134;-74
2023/04/13 03:03:10;;;;;;;3.15;1.10;;;;;;;8.07;100.00;99286.16;5068178;28;20091;-71
2023/04/13 03:05:37;;;;;;;1.95;0.88;;;;;;;8.15;100.00;99276.59;5068508;28;20044;-75
2023/04/13 03:08:04;;;;;;;2.20;1.33;;;;;;;8.09;100.00;99294.00;5065809;28;20044;-73
2023/04/13 03:10:31;;;;;;;11.77;1.52;;;;;;;8.10;100.00;99279.78;5064573;28;20052;-74
2023/04/13 03:12:57;;;;;;;3.50;1.05;;;;;;;8.07;100.00;99285.38;5062369;28;20049;-73
2023/04/13 03:15:24;;;;;;;1.88;0.85;;;;;;;8.09;100.00;99286.50;5068201;28;20044;-74
2023/04/13 03:17:51;;;;;;;2.65;1.23;;;;;;;8.09;100.00;99283.00;5068548;28;20048;-75
2023/04/13 03:20:19;;;;;;;1.85;0.85;;;;;;;8.03;100.00;99291.69;5058832;28;20098;-73
2023/04/13 03:22:46;;;;;;;3.17;1.10;;;;;;;8.06;100.00;99290.09;5061001;28;20048;-74
2023/04/13 03:25:12;;;;;;;1.67;0.73;;;;;;;8.11;100.00;99288.84;5066577;28;20643;-73
2023/04/13 03:27:39;;;;;;;3.38;1.08;;;;;;;8.16;100.00;99291.91;5064891;28;20052;-74
2023/04/13 03:30:06;;;;;;;2.83;0.90;;;;;;;8.14;100.00;99280.53;5059637;28;20553;-73
2023/04/13 03:32:33;;;;;;;2.08;0.85;;;;;;;8.16;100.00;99283.66;5067178;28;20055;-75
2023/04/13 03:35:00;;;;;;;4.03;1.02;;;;;;;8.19;100.00;99271.81;5064342;28;20054;-74
2023/04/13 03:37:28;;;;;;;3.25;0.88;;;;;;;8.17;100.00;99273.41;5067192;28;20518;-75
2023/04/13 03:39:56;;;;;;;2.95;1.20;;;;;;;8.25;100.00;99275.69;5067201;28;20725;-75
2023/04/13 03:42:23;;;;;;;2.42;0.80;;;;;;;8.19;100.00;99285.56;5067210;28;20751;-74
2023/04/13 03:44:49;;;;;;;4.03;0.80;;;;;;;8.19;100.00;99274.56;5063242;28;20052;-74
2023/04/13 03:47:16;;;;;;;4.75;1.20;;;;;;;8.28;100.00;99291.38;5067471;28;20048;-75
2023/04/13 03:49:42;;;;;;;4.28;0.98;;;;;;;8.22;100.00;99309.56;5058456;28;20139;-73
2023/04/13 03:52:09;;;;;;;2.13;0.95;;;;;;;8.29;100.00;99301.22;5063121;28;20495;-73
2023/04/13 03:54:36;;;;;;;1.33;0.47;;;;;;;8.30;100.00;99302.00;5062806;28;20037;-74
2023/04/13 03:57:03;;;;;;;3.95;1.27;;;;;;;8.28;100.00;99305.16;5063876;28;20055;-74
2023/04/13 03:59:30;;;;;;;3.60;1.10;;;;;;;8.26;100.00;99307.53;5066873;28;20507;-76
2023/04/13 04:01:56;;;;;;;6.35;1.00;;;;;;;8.30;100.00;99313.03;5067109;28;20135;-76
2023/04/13 04:04:23;;;;;;;4.13;1.02;;;;;;;8.27;100.00;99314.59;5063100;28;20043;-74
2023/04/13 04:06:50;;;;;;;5.05;1.60;;;;;;;8.20;100.00;99330.44;5067485;28;20137;-74
2023/04/13 04:09:16;;;;;;;1.17;1.00;;;;;;;8.37;100.00;99327.47;5065938;28;20048;-75
2023/04/13 04:11:43;;;;;;;3.30;0.88;;;;;;;8.28;100.00;99348.47;5066776;28;20047;-75
2023/04/13 04:14:10;;;;;;;3.35;1.20;;;;;;;8.34;100.00;99338.53;5067000;28;20041;-74
2023/04/13 04:16:36;;;;;;;1.73;0.82;;;;;;;8.32;100.00;99338.16;5063385;28;20415;-74
2023/04/13 04:19:03;;;;;;;1.70;0.85;;;;;;;8.35;100.00;99338.13;5056813;28;20040;-75
2023/04/13 04:21:33;;;;;;;1.52;1.00;;;;;;;8.26;100.00;99340.63;5067349;28;20059;-74
2023/04/13 04:24:05;;;;;;;4.80;1.30;;;;;;;8.18;100.00;99349.34;5067440;28;20040;-74
2023/04/13 04:26:31;;;;;;;4.18;1.00;;;;;;;8.20;100.00;99344.97;5065716;28;20122;-74
2023/04/13 04:29:00;;;;;;;2.80;0.88;;;;;;;8.18;100.00;99355.66;5067404;28;20052;-74
2023/04/13 04:31:33;;;;;;;2.35;0.90;;;;;;;8.25;100.00;99344.56;5062773;28;20132;-73
2023/04/13 04:34:02;;;;;;;3.03;1.45;;;;;;;8.22;100.00;99345.41;5066994;28;20048;-74
2023/04/13 04:36:29;;;;;;;2.95;1.05;;;;;;;8.29;100.00;99356.31;5067701;28;20040;-75
2023/04/13 04:39:01;;;;;;;3.78;1.13;;;;;;;8.28;100.00;99368.53;5063990;28;20102;-75
2023/04/13 04:41:29;;;;;;;2.45;0.57;;;;;;;8.36;100.00;99367.25;5067176;28;20490;-74
2023/04/13 04:43:56;;;;;;;6.13;1.75;;;;;;;8.23;100.00;99362.72;5064846;28;20037;-74
2023/04/13 04:46:26;;;;;;;1.50;0.70;;;;;;;8.40;100.00;99370.72;5066103;28;20049;-72
2023/04/13 04:48:53;;;;;;;5.80;1.10;;;;;;;8.41;100.00;99377.03;5068400;28;20090;-74
2023/04/13 04:51:23;;;;;;;2.60;0.90;;;;;;;8.43;100.00;99372.66;5070774;28;20045;-74
2023/04/13 04:53:51;;;;;;;1.17;0.77;;;;;;;8.41;100.00;99383.34;5061964;28;20132;-75
2023/04/13 04:56:19;;;;;;;2.97;1.00;;;;;;;8.37;100.00;99392.84;5070471;28;20097;-77
2023/04/13 04:58:46;;;;;;;1.63;0.88;;;;;;;8.39;100.00;99406.97;5068946;28;20064;-76
2023/04/13 05:01:12;;;;;;;3.33;1.35;;;;;;;8.43;100.00;99414.00;5068145;28;20071;-74
2023/04/13 05:03:39;;;;;;;5.00;2.10;;;;;;;8.40;100.00;99414.81;5068618;28;20456;-74
2023/04/13 05:06:06;;;;;;;8.00;1.65;;;;;;;8.47;100.00;99403.69;5071098;28;20048;-74
2023/04/13 05:08:33;;;;;;;3.95;1.52;;;;;;;8.41;100.00;99421.91;5064213;28;20048;-76
2023/04/13 05:10:59;;;;;;;3.47;1.13;;;;;;;8.42;100.00;99431.75;5070427;28;20131;-74
2023/04/13 05:13:26;;;;;;;1.40;0.80;;;;;;;8.53;100.00;99412.28;5069103;28;20059;-74
2023/04/13 05:15:52;;;;;;;5.47;1.17;;;;;;;8.54;100.00;99427.66;5066840;28;20435;-75
2023/04/13 05:18:19;;;;;;;1.65;0.60;;;;;;;8.54;100.00;99427.66;5063935;28;20415;-74
2023/04/13 05:20:46;;;;;;;5.35;2.17;;;;;;;8.40;100.00;99434.13;5067122;28;20053;-73
2023/04/13 05:23:12;;;;;;;4.30;2.05;;;;;;;8.48;100.00;99429.31;5066220;28;20051;-73
2023/04/13 05:25:39;;;;;;;8.63;1.55;;;;;;;8.45;100.00;99449.41;5068742;28;20131;-76
2023/04/13 05:28:05;;;;;;;6.15;1.55;;;;;;;8.48;100.00;99443.88;5066472;28;20534;-77
2023/04/13 05:30:32;;;;;;;5.47;1.90;;;;;;;8.30;100.00;99464.56;5066793;28;20514;-74
2023/04/13 05:33:04;;;;;;;2.38;1.20;;;;;;;8.36;100.00;99463.69;5069443;28;20052;-73
2023/04/13 05:35:31;;;;;;;4.10;1.42;;;;;;;8.28;100.00;99477.97;5067626;28;20857;-73
2023/04/13 05:37:59;;;;;;;4.88;1.85;;;;;;;8.29;100.00;99485.84;5070284;28;20052;-75
2023/04/13 05:40:27;;;;;;;5.88;1.88;;;;;;;8.20;100.00;99484.75;5065303;28;20073;-74
2023/04/13 05:42:55;;;;;;;2.60;1.73;;;;;;;8.26;100.00;99502.41;5068767;28;20495;-74
2023/04/13 05:45:21;;;;;;;7.18;2.03;;;;;;;8.26;100.00;99507.94;5065335;28;20040;-77
2023/04/13 05:47:48;;;;;;;5.60;1.67;;;;;;;8.33;100.00;99505.84;5062579;28;20401;-76
2023/04/13 05:50:14;;;;;;;3.72;1.63;;;;;;;8.37;100.00;99512.09;5065749;28;20052;-73
2023/04/13 05:52:41;;;;;;;2.17;1.40;;;;;;;8.32;100.00;99523.59;5069504;28;20049;-75
2023/04/13 05:55:08;;;;;;;3.58;1.83;;;;;;;8.34;100.00;99523.19;5069349;28;20036;-74
2023/04/13 05:57:35;;;;;;;5.60;1.95;;;;;;;8.39;100.00;99544.78;5069711;28;20055;-74
2023/04/13 06:00:02;;;;;;;1.40;0.85;;;;;;;8.46;100.00;99533.66;5066633;28;20068;-76
2023/04/13 06:02:30;;;;;;;6.30;2.17;;;;;;;8.41;100.00;99540.44;5067774;28;20403;-74
2023/04/13 06:04:57;;;;;;;4.28;1.90;;;;;;;8.50;100.00;99553.72;5060794;28;20402;-72
2023/04/13 06:07:24;;;;;;;4.05;1.90;;;;;;;8.52;100.00;99543.06;5067798;28;20403;-77
2023/04/13 06:09:51;;;;;;;4.65;1.70;;;;;;;8.63;100.00;99544.50;5068173;28;20136;-76
2023/04/13 06:12:18;;;;;;;3.30;1.48;;;;;;;8.68;100.00;99541.28;5060223;28;20040;-75
2023/04/13 06:14:44;;;;;;;3.20;1.23;;;;;;;8.71;100.00;99545.97;5058785;28;20043;-74
2023/04/13 06:17:11;;;;;;;9.68;2.78;;;;;;;8.75;100.00;99551.44;5065759;28;20119;-74
2023/04/13 06:19:37;;;;;;;8.20;2.25;;;;;;;8.85;100.00;99545.03;5061172;28;20047;-74
2023/04/13 06:22:04;;;;;;;10.48;3.60;;;;;;;8.88;100.00;99552.47;5068645;28;20046;-74
2023/04/13 06:24:30;;;;;;;10.65;2.65;;;;;;;8.94;100.00;99548.06;5069894;28;20097;-74
2023/04/13 06:26:58;;;;;;;6.30;2.13;;;;;;;9.05;100.00;99556.97;5074778;28;20040;-73
2023/04/13 06:29:25;;;;;;;4.60;1.67;;;;;;;9.05;100.00;99566.00;5075279;28;20124;-75
2023/04/13 06:31:51;;;;;;;5.50;2.17;;;;;;;8.96;100.00;99563.00;5069683;28;20060;-73
2023/04/13 06:34:19;;;;;;;5.00;2.25;;;;;;;9.07;100.00;99566.41;5063585;28;20040;-75
2023/04/13 06:36:45;;;;;;;6.57;2.80;;;;;;;9.02;100.00;99566.06;5074244;28;20083;-74
2023/04/13 06:39:12;;;;;;;6.75;3.10;;;;;;;8.97;100.00;99591.34;5059915;28;20044;-75
2023/04/13 06:41:39;;;;;;;7.85;2.88;;;;;;;9.10;100.00;99592.38;5068517;28;20047;-74
2023/04/13 06:44:05;;;;;;;10.00;2.65;;;;;;;9.05;100.00;99592.84;5066896;28;20056;-76
2023/04/13 06:46:32;;;;;;;10.32;3.83;;;;;;;9.01;100.00;99603.16;5066934;28;20421;-74
2023/04/13 06:48:59;;;;;;;1.48;1.20;;;;;;;9.17;100.00;99601.34;5065073;28;20037;-75
2023/04/13 06:51:26;;;;;;;3.15;1.67;;;;;;;9.18;100.00;99597.38;5063892;28;20053;-76
2023/04/13 06:53:53;;;;;;;2.25;0.82;;;;;;;9.34;100.00;99599.53;5068416;28;20062;-77
2023/04/13 06:56:20;;;;;;;3.80;1.90;;;;;;;9.29;100.00;99597.25;5060921;28;20036;-76
2023/04/13 06:58:46;;;;;;;5.18;2.08;;;;;;;9.42;100.00;99599.00;5068620;28;20135;-78
2023/04/13 07:01:13;;;;;;;5.65;2.33;;;;;;;9.35;100.00;99618.44;5062378;28;20044;-78
2023/04/13 07:03:39;;;;;;;5.88;1.85;;;;;;;9.35;100.00;99618.44;5067628;28;20048;-77
2023/04/13 07:06:07;;;;;;;6.00;2.65;;;;;;;9.52;100.00;99611.88;5067413;28;20040;-76
2023/04/13 07:08:34;;;;;;;4.90;1.67;;;;;;;9.47;100.00;99622.63;5065202;28;20050;-77
2023/04/13 07:11:01;;;;;;;5.43;2.40;;;;;;;9.49;100.00;99632.03;5058062;28;20059;-78
2023/04/13 07:13:28;;;;;;;7.93;2.97;;;;;;;9.45;100.00;99625.03;5066237;28;20110;-77
2023/04/13 07:15:54;;;;;;;5.78;1.70;;;;;;;9.55;100.00;99643.44;5074422;28;20397;-77
2023/04/13 07:18:21;;;;;;;8.20;2.47;;;;;;;9.52;100.00;99660.81;5068753;28;20053;-78
2023/04/13 07:20:47;;;;;;;3.40;1.83;;;;;;;9.75;100.00;99638.78;5061502;28;20127;-76
2023/04/13 07:23:14;;;;;;;10.90;1.90;;;;;;;9.75;100.00;99624.97;5067049;28;20067;-78
2023/04/13 07:25:40;;;;;;;4.90;1.75;;;;;;;9.72;100.00;99626.59;5059395;28;20482;-78
2023/04/13 07:28:07;;;;;;;4.60;2.00;;;;;;;9.72;100.00;99626.59;5062520;28;20044;-77
2023/04/13 07:30:33;;;;;;;8.55;3.10;;;;;;;9.91;100.00;99636.16;5069472;28;20049;-77
2023/04/13 07:33:00;;;;;;;8.43;2.03;;;;;;;9.93;100.00;99650.34;5063476;28;20036;-77
2023/04/13 07:35:27;;;;;;;4.63;2.15;;;;;;;9.84;100.00;99644.56;5064909;28;20036;-78
2023/04/13 07:37:53;;;;;;;2.10;1.33;;;;;;;9.96;100.00;99657.81;5062862;28;20163;-75
2023/04/13 07:40:20;;;;;;;11.50;2.85;;;;;;;9.82;100.00;99647.75;5065549;28;20036;-77
2023/04/13 07:42:49;;;;;;;6.75;2.58;;;;;;;9.82;100.00;99650.50;5065975;28;20517;-78
2023/04/13 07:45:16;;;;;;;3.85;1.75;;;;;;;9.94;100.00;99665.72;5068074;28;20118;-76
2023/04/13 07:47:43;;;;;;;3.65;1.75;;;;;;;9.99;100.00;99649.44;5067800;28;20044;-77
2023/04/13 07:50:10;;;;;;;8.95;1.20;;;;;;;10.08;100.00;99660.78;5067571;28;20048;-78
2023/04/13 07:52:37;;;;;;;4.88;2.03;;;;;;;10.15;100.00;99665.41;5059196;28;20044;-77
2023/04/13 07:55:04;;;;;;;9.40;1.92;;;;;;;10.25;100.00;99659.72;5073358;28;20046;-78
2023/04/13 07:57:31;;;;;;;8.73;2.13;;;;;;;10.14;100.00;99677.69;5063483;28;20056;-77
2023/04/13 07:59:57;;;;;;;3.90;1.67;;;;;;;10.31;100.00;99680.19;5065708;28;20037;-76
2023/04/13 08:02:24;;;;;;;1.33;1.23;;;;;;;10.14;100.00;99675.72;5066399;28;20135;-77
2023/04/13 08:04:51;;;;;;;4.75;2.15;;;;;;;10.07;100.00;99686.09;5067684;28;20036;-79
2023/04/13 08:07:19;;;;;;;4.57;2.08;;;;;;;10.11;100.00;99703.41;5067540;28;20036;-79
2023/04/13 08:09:47;;;;;;;2.80;1.73;;;;;;;10.10;100.00;99691.53;5054500;28;20050;-78
2023/04/13 08:12:14;;;;;;;2.42;1.63;;;;;;;10.14;100.00;99697.81;5043908;28;20171;-76
2023/04/13 08:14:40;;;;;;;1.15;0.98;;;;;;;10.15;100.00;99704.13;5063464;28;20160;-77
2023/04/13 08:17:07;;;;;;;3.15;1.15;;;;;;;10.16;100.00;99711.22;5058613;28;20048;-77
2023/04/13 08:19:34;;;;;;;1.95;1.25;;;;;;;10.19;100.00;99710.38;5067240;28;20397;-78
2023/04/13 08:22:00;;;;;;;3.80;1.35;;;;;;;10.18;100.00;99715.13;5064362;28;20123;-78
2023/04/13 08:24:28;;;;;;;4.85;2.40;;;;;;;10.09;100.00;99728.69;5065781;28;20509;-79
2023/04/13 08:26:57;;;;;;;3.80;1.65;;;;;;;10.11;100.00;99726.28;5065849;28;20090;-80
2023/04/13 08:29:24;;;;;;;6.93;1.75;;;;;;;10.05;100.00;99743.72;5052667;28;20571;-79
2023/04/13 08:31:51;;;;;;;2.67;1.35;;;;;;;10.17;100.00;99724.59;5051703;28;20787;-78
2023/04/13 08:34:18;;;;;;;5.80;2.17;;;;;;;10.08;100.00;99748.44;5051718;28;20044;-80
2023/04/13 08:36:45;;;;;;;9.82;2.47;;;;;;;10.11;100.00;99737.34;5058531;28;20051;-79
2023/04/13 08:39:12;;;;;;;3.67;1.70;;;;;;;10.19;100.00;99746.31;5054224;28;20577;-79
2023/04/13 08:41:42;;;;;;;3.33;1.58;;;;;;;10.27;100.00;99745.00;5059842;28;20044;-78
2023/04/13 08:44:12;;;;;;;4.03;1.98;;;;;;;10.22;100.00;99753.75;5060146;28;20040;-79
2023/04/13 08:46:41;;;;;;;7.75;2.20;;;;;;;10.27;100.00;99748.53;5060927;28;20041;-79
2023/04/13 08:49:09;;;;;;;4.75;1.63;;;;;;;10.23;100.00;99750.56;5055060;28;20046;-78
2023/04/13 08:51:37;;;;;;;8.00;2.00;;;;;;;10.41;100.00;99751.13;5058402;28;20049;-79
2023/04/13 08:54:05;;;;;;;3.50;2.00;;;;;;;10.44;100.00;99769.59;5062482;28;20116;-79
2023/04/13 08:56:33;;;;;;;7.57;1.25;;;;;;;10.43;100.00;99770.81;5062810;28;20036;-81
2023/04/13 08:59:14;;;;;;;8.15;2.30;;;;;;;10.46;100.00;99772.75;5062406;28;20076;-80
2023/04/13 09:01:44;;;;;;;3.97;1.90;;;;;;;10.38;100.00;99778.81;5060208;28;21083;-77
2023/04/13 09:04:16;;;;;;;4.80;1.60;;;;;;;10.40;100.00;99777.19;5060269;28;20052;-79
2023/04/13 09:06:46;;;;;;;3.90;1.50;;;;;;;10.38;100.00;99789.88;5062146;28;20040;-79
2023/04/13 09:09:13;;;;;;;1.98;1.38;;;;;;;10.49;100.00;99784.94;5063980;28;20051;-79
2023/04/13 09:11:41;;;;;;;4.97;1.85;;;;;;;10.39;100.00;99794.19;5054373;28;20036;-77
2023/04/13 09:14:09;;;;;;;10.15;1.95;;;;;;;10.42;100.00;99802.44;5057283;28;20057;-76
2023/04/13 09:16:40;;;;;;;2.45;1.50;;;;;;;10.41;100.00;99814.72;5062930;28;20049;-76
2023/04/13 09:19:07;;;;;;;4.53;2.28;;;;;;;10.35;100.00;99812.81;5055389;28;20091;-75
2023/04/13 09:21:41;;;;;;;9.07;2.90;;;;;;;10.42;100.00;99819.03;5059401;28;20052;-74
2023/04/13 09:24:09;;;;;;;3.33;1.57;;;;;;;10.42;100.00;99815.47;5060791;28;20052;-77
2023/04/13 09:26:44;;;;;;;12.90;3.65;;;;;;;10.38;100.00;99823.84;5046347;28;20133;-78
2023/04/13 09:29:15;;;;;;;7.93;2.57;;;;;;;10.44;100.00;99805.56;5056671;28;20055;-78
2023/04/13 09:31:43;;;;;;;15.70;3.75;;;;;;;10.50;100.00;99825.25;5057338;28;20291;-78
2023/04/13 09:34:12;;;;;;;10.13;3.50;;;;;;;10.48;100.00;99822.91;5057284;28;20102;-80
2023/04/13 09:36:40;;;;;;;8.23;2.53;;;;;;;10.67;100.00;99824.19;5056533;28;20047;-79
2023/04/13 09:39:26;;;;;;;7.80;1.90;;;;;;;10.89;100.00;99838.44;5057142;28;20124;-78
2023/04/13 09:41:54;;;;;;;3.72;1.67;;;;;;;11.01;100.00;99832.34;5062705;28;20037;-77
2023/04/13 09:44:33;;;;;;;16.80;3.50;;;;;;;10.86;100.00;99836.56;5064822;28;20075;-78
2023/04/13 09:47:01;;;;;;;5.43;2.38;;;;;;;11.08;100.00;99829.44;5058031;28;20478;-77
2023/04/13 09:49:39;;;;;;;8.75;2.63;;;;;;;11.02;100.00;99844.97;5064932;28;20479;-77
2023/04/13 09:52:17;;;;;;;6.03;2.00;;;;;;;11.15;100.00;99832.88;5058038;28;20145;-78
2023/04/13 09:54:48;;;;;;;3.50;1.73;;;;;;;11.23;100.00;99839.06;5055641;28;20048;-75
2023/04/13 09:57:39;;;;;;;4.70;2.00;;;;;;;11.30;100.00;99833.41;5061586;28;20047;-76
2023/04/13 10:00:13;;;;;;;6.15;2.35;;;;;;;11.20;100.00;99862.84;5064917;28;20417;-79
2023/04/13 10:02:43;;;;;;;2.58;1.67;;;;;;;11.14;100.00;99836.81;5058905;28;20554;-77
2023/04/13 10:05:10;;;;;;;7.60;2.65;;;;;;;11.16;100.00;99834.44;5054789;28;20068;-79
2023/04/13 10:07:38;;;;;;;5.40;1.48;;;;;;;11.11;100.00;99837.69;5066479;28;20118;-77
2023/04/13 10:10:06;;;;;;;9.52;3.03;;;;;;;11.15;100.00;99838.41;5050262;28;20045;-76
2023/04/13 10:12:37;;;;;;;8.00;2.90;;;;;;;11.18;100.00;99845.09;5068642;28;20126;-77
2023/04/13 10:15:35;;;;;;;4.65;1.98;;;;;;;11.13;100.00;99851.13;5057315;28;20045;-80
2023/04/13 10:18:07;;;;;;;12.50;3.03;;;;;;;11.15;100.00;99843.94;5057279;28;20059;-78
2023/04/13 10:20:35;;;;;;;2.97;1.85;;;;;;;11.11;100.00;99857.06;5060990;28;20056;-78
2023/04/13 10:23:03;;;;;;;2.20;1.58;;;;;;;11.16;100.00;99847.47;5066255;28;20052;-79
2023/04/13 10:25:30;;;;;;;8.15;2.92;;;;;;;11.01;100.00;99855.28;5056844;28;20102;-77
2023/04/13 10:28:00;;;;;;;5.32;1.30;;;;;;;11.12;100.00;99860.59;5055827;28;20059;-77
2023/04/13 10:30:27;;;;;;;8.88;2.70;;;;;;;11.15;100.00;99870.84;5059574;28;20502;-77
2023/04/13 10:33:05;;;;;;;10.98;2.33;;;;;;;11.24;100.00;99866.31;5060651;28;20052;-76
2023/04/13 10:35:39;;;;;;;9.65;2.15;;;;;;;11.36;100.00;99862.97;5058832;28;20051;-76
2023/04/13 10:38:09;;;;;;;6.57;2.70;;;;;;;11.27;100.00;99884.09;5062051;28;20048;-77
2023/04/13 10:40:46;;;;;;;6.78;2.35;;;;;;;11.46;100.00;99883.34;5065898;28;20059;-78
2023/04/13 10:43:27;;;;;;;7.82;2.30;;;;;;;11.44;100.00;99883.78;5062187;28;20087;-78
2023/04/13 10:46:08;;;;;;;6.20;1.58;;;;;;;11.58;100.00;99885.53;5068286;28;20045;-77
2023/04/13 10:48:35;;;;;;;7.85;2.53;;;;;;;11.61;100.00;99884.69;5063146;28;20040;-78
2023/04/13 10:51:02;;;;;;;10.38;1.75;;;;;;;11.82;100.00;99887.88;5059221;28;20696;-77
2023/04/13 10:53:32;;;;;;;10.90;2.45;;;;;;;11.84;100.00;99890.97;5061873;28;20056;-76
2023/04/13 10:56:00;;;;;;;6.53;1.92;;;;;;;12.05;100.00;99887.00;5055720;28;20041;-78
2023/04/13 10:58:30;;;;;;;1.00;0.70;;;;;;;12.15;100.00;99894.34;5063247;28;20051;-76
2023/04/13 11:00:59;;;;;;;0.65;0.57;;;;;;;12.21;100.00;99898.94;5066456;28;20491;-77
2023/04/13 11:03:27;;;;;;;11.68;2.47;;;;;;;12.18;100.00;99888.69;5058637;28;20631;-78
2023/04/13 11:05:57;;;;;;;16.20;3.38;;;;;;;11.99;100.00;99892.28;5061378;28;20052;-77
2023/04/13 11:08:23;;;;;;;4.57;1.13;;;;;;;12.13;100.00;99891.19;5062860;28;20052;-79
2023/04/13 11:10:52;;;;;;;8.55;2.13;;;;;;;12.10;100.00;99886.50;5067084;28;20045;-77
2023/04/13 11:13:19;;;;;;;6.40;1.58;;;;;;;12.08;100.00;99903.56;5065251;28;20045;-76
2023/04/13 11:15:48;;;;;;;4.22;1.67;;;;;;;12.17;100.00;99903.00;5066682;28;20106;-77
2023/04/13 11:18:25;;;;;;;5.47;1.92;;;;;;;12.22;100.00;99902.50;5061880;28;20399;-78
2023/04/13 11:20:52;;;;;;;5.30;1.80;;;;;;;12.28;100.00;99898.00;5061782;28;20044;-79
2023/04/13 11:23:22;;;;;;;7.20;1.90;;;;;;;12.48;100.00;99901.53;5063696;28;20048;-77
2023/04/13 11:25:54;;;;;;;9.23;2.75;;;;;;;12.29;100.00;99899.59;5068801;28;20048;-77
2023/04/13 11:28:22;;;;;;;7.82;2.03;;;;;;;12.41;100.00;99907.25;5064793;28;20062;-77
2023/04/13 11:30:55;;;;;;;10.52;1.73;;;;;;;12.33;100.00;99917.72;5063021;28;20056;-77
2023/04/13 11:33:30;;;;;;;8.13;1.88;;;;;;;12.36;100.00;99930.72;5065110;28;20048;-81
2023/04/13 11:35:58;;;;;;;5.05;2.00;;;;;;;12.38;100.00;99927.50;5065387;28;20410;-77